createdAt,value
2023-03-28T00:02:08.712Z,1.35
2023-03-28T00:04:37.375Z,1.10
2023-03-28T00:07:05.494Z,1.50
2023-03-28T00:09:32.896Z,1.38
2023-03-28T00:11:59.602Z,1.35
2023-03-28T00:14:26.342Z,1.45
2023-03-28T00:16:53.001Z,1.30
2023-03-28T00:19:20.623Z,1.75
2023-03-28T00:21:48.894Z,1.70
2023-03-28T00:24:21.556Z,1.00
2023-03-28T00:26:54.518Z,1.00
2023-03-28T00:34:16.491Z,0.98
2023-03-28T00:36:43.173Z,1.10
2023-03-28T00:39:10.439Z,1.17
2023-03-28T00:41:40.178Z,1.08
2023-03-28T00:44:41.047Z,1.38
2023-03-28T00:47:37.605Z,0.85
2023-03-28T00:50:05.406Z,1.08
2023-03-28T00:52:39.879Z,1.02
2023-03-28T00:55:09.212Z,1.17
2023-03-28T00:57:38.284Z,0.98
2023-03-28T01:00:12.284Z,1.02
2023-03-28T01:02:41.458Z,1.00
2023-03-28T01:05:09.149Z,1.05
2023-03-28T01:07:40.859Z,1.42
2023-03-28T01:10:08.477Z,1.00
2023-03-28T01:12:35.182Z,0.90
2023-03-28T01:15:01.886Z,1.05
2023-03-28T01:17:30.740Z,1.00
2023-03-28T01:20:26.715Z,1.30
2023-03-28T01:23:30.006Z,0.93
2023-03-28T01:26:12.487Z,1.30
2023-03-28T01:28:39.107Z,1.00
2023-03-28T01:31:47.534Z,0.90
2023-03-28T01:34:51.664Z,0.93
2023-03-28T01:37:41.521Z,1.05
2023-03-28T01:40:08.278Z,1.20
2023-03-28T01:42:53.542Z,1.00
2023-03-28T01:45:56.051Z,0.93
2023-03-28T01:48:41.613Z,1.13
2023-03-28T01:51:18.278Z,1.13
2023-03-28T01:53:57.045Z,0.80
2023-03-28T01:56:40.994Z,0.98
2023-03-28T01:59:14.100Z,1.20
2023-03-28T02:02:12.603Z,1.05
2023-03-28T02:04:39.296Z,1.38
2023-03-28T02:07:08.901Z,1.00
2023-03-28T02:09:35.956Z,1.17
2023-03-28T02:12:25.085Z,1.02
2023-03-28T02:14:52.060Z,1.10
2023-03-28T02:17:19.221Z,0.93
2023-03-28T02:19:50.275Z,1.02
2023-03-28T02:22:31.312Z,0.90
2023-03-28T02:24:58.009Z,1.20
2023-03-28T02:27:24.709Z,1.10
2023-03-28T02:29:54.358Z,1.15
2023-03-28T02:32:22.031Z,0.90
2023-03-28T02:34:49.250Z,0.90
2023-03-28T02:37:31.439Z,1.05
2023-03-28T02:40:35.925Z,1.00
2023-03-28T02:43:05.376Z,1.15
2023-03-28T02:45:57.160Z,1.17
2023-03-28T02:48:34.276Z,1.10
2023-03-28T02:51:06.836Z,0.85
2023-03-28T02:53:58.566Z,1.00
2023-03-28T02:56:31.962Z,1.13
2023-03-28T02:59:23.908Z,1.02
2023-03-28T03:01:50.624Z,1.05
2023-03-28T03:04:17.508Z,0.90
2023-03-28T03:06:45.607Z,1.00
2023-03-28T03:09:13.205Z,1.83
2023-03-28T03:11:39.933Z,0.85
2023-03-28T03:14:06.568Z,1.00
2023-03-28T03:16:33.359Z,0.85
2023-03-28T03:19:00.448Z,1.10
2023-03-28T03:21:27.296Z,1.23
2023-03-28T03:23:54.001Z,1.10
2023-03-28T03:26:20.662Z,0.82
2023-03-28T03:28:47.459Z,0.70
2023-03-28T03:31:14.170Z,0.95
2023-03-28T03:33:43.838Z,0.82
2023-03-28T03:36:12.684Z,1.17
2023-03-28T03:38:39.801Z,1.05
2023-03-28T03:41:06.884Z,0.90
2023-03-28T03:43:34.349Z,0.88
2023-03-28T03:46:02.408Z,0.90
2023-03-28T03:48:29.695Z,1.10
2023-03-28T03:50:56.407Z,1.17
2023-03-28T03:53:23.084Z,1.02
2023-03-28T03:55:49.828Z,1.00
2023-03-28T03:58:18.684Z,1.08
2023-03-28T04:00:48.920Z,0.90
2023-03-28T04:03:24.960Z,0.95
2023-03-28T04:05:57.969Z,1.10
2023-03-28T04:08:24.948Z,0.98
2023-03-28T04:10:52.277Z,1.23
2023-03-28T04:13:19.084Z,1.10
2023-03-28T04:15:48.639Z,0.80
2023-03-28T04:18:17.657Z,0.93
2023-03-28T04:20:44.640Z,0.82
2023-03-28T04:23:11.287Z,0.90
2023-03-28T04:25:41.515Z,1.00
2023-03-28T04:28:09.720Z,1.02
2023-03-28T04:30:38.229Z,0.82
2023-03-28T04:33:04.970Z,1.00
2023-03-28T04:35:35.466Z,0.98
2023-03-28T04:38:02.710Z,1.02
2023-03-28T04:40:29.473Z,1.00
2023-03-28T04:42:56.232Z,1.00
2023-03-28T04:45:23.575Z,1.38
2023-03-28T04:47:50.550Z,1.30
2023-03-28T04:50:17.343Z,1.00
2023-03-28T04:52:44.161Z,1.00
2023-03-28T04:55:10.818Z,0.75
2023-03-28T04:57:38.210Z,1.10
2023-03-28T05:00:17.100Z,0.90
2023-03-28T05:02:44.075Z,1.02
2023-03-28T05:05:10.929Z,1.30
2023-03-28T05:07:37.572Z,1.00
2023-03-28T05:10:04.881Z,1.00
2023-03-28T05:12:31.548Z,1.08
2023-03-28T05:14:58.251Z,1.00
2023-03-28T05:17:24.974Z,1.00
2023-03-28T05:19:51.690Z,1.00
2023-03-28T05:22:18.321Z,1.25
2023-03-28T05:24:44.995Z,0.90
2023-03-28T05:27:11.675Z,1.20
2023-03-28T05:29:38.365Z,1.00
2023-03-28T05:32:05.207Z,1.45
2023-03-28T05:34:32.021Z,1.42
2023-03-28T05:36:58.699Z,1.15
2023-03-28T05:39:25.594Z,1.27
2023-03-28T05:41:52.301Z,1.00
2023-03-28T05:44:19.022Z,1.10
2023-03-28T05:46:45.788Z,1.17
2023-03-28T05:49:12.486Z,1.35
2023-03-28T05:51:39.199Z,1.30
2023-03-28T05:54:05.910Z,0.95
2023-03-28T05:56:35.597Z,0.90
2023-03-28T05:59:02.406Z,1.13
2023-03-28T06:01:29.286Z,1.20
2023-03-28T06:03:56.009Z,1.20
2023-03-28T06:06:22.786Z,1.33
2023-03-28T06:08:49.461Z,1.20
2023-03-28T06:11:16.226Z,1.25
2023-03-28T06:13:42.900Z,1.20
2023-03-28T06:16:09.716Z,1.23
2023-03-28T06:18:36.404Z,1.13
2023-03-28T06:21:03.149Z,1.20
2023-03-28T06:23:29.911Z,1.20
2023-03-28T06:25:56.618Z,1.95
2023-03-28T06:28:23.358Z,2.13
2023-03-28T06:30:50.584Z,2.03
2023-03-28T06:33:17.259Z,1.92
2023-03-28T06:35:44.039Z,1.73
2023-03-28T06:38:10.911Z,1.50
2023-03-28T06:40:37.729Z,1.10
2023-03-28T06:43:04.392Z,1.42
2023-03-28T06:45:31.053Z,1.40
2023-03-28T06:47:57.936Z,1.60
2023-03-28T06:50:24.603Z,1.52
2023-03-28T06:52:51.240Z,1.55
2023-03-28T06:55:17.998Z,1.52
2023-03-28T06:57:44.695Z,1.17
2023-03-28T07:00:11.873Z,1.15
2023-03-28T07:02:38.679Z,1.50
2023-03-28T07:05:05.814Z,1.58
2023-03-28T07:07:32.614Z,1.42
2023-03-28T07:09:59.304Z,1.23
2023-03-28T07:12:26.322Z,1.70
2023-03-28T07:14:53.027Z,1.58
2023-03-28T07:17:20.037Z,1.60
2023-03-28T07:19:49.145Z,2.03
2023-03-28T07:22:15.979Z,1.50
2023-03-28T07:24:42.665Z,1.48
2023-03-28T07:27:15.537Z,1.30
2023-03-28T07:29:43.078Z,1.30
2023-03-28T07:32:09.772Z,1.35
2023-03-28T07:34:36.535Z,1.30
2023-03-28T07:37:03.675Z,1.50
2023-03-28T07:39:30.378Z,1.63
2023-03-28T07:41:57.056Z,1.40
2023-03-28T07:44:23.725Z,1.30
2023-03-28T07:46:51.250Z,1.50
2023-03-28T07:49:19.906Z,1.85
2023-03-28T07:51:47.968Z,1.30
2023-03-28T07:54:17.519Z,1.92
2023-03-28T07:56:45.548Z,2.05
2023-03-28T07:59:15.268Z,2.00
2023-03-28T08:01:42.888Z,2.30
2023-03-28T08:04:10.437Z,1.80
2023-03-28T08:06:38.301Z,2.15
2023-03-28T08:09:06.528Z,1.90
2023-03-28T08:11:36.831Z,1.92
2023-03-28T08:14:04.137Z,2.22
2023-03-28T08:16:30.977Z,2.40
2023-03-28T08:19:09.973Z,2.58
2023-03-28T08:21:37.819Z,2.22
2023-03-28T08:24:04.638Z,2.70
2023-03-28T08:26:31.580Z,3.50
2023-03-28T08:28:58.983Z,3.08
2023-03-28T08:31:26.863Z,3.03
2023-03-28T08:33:54.560Z,2.63
2023-03-28T08:36:22.020Z,3.05
2023-03-28T08:38:50.060Z,2.40
2023-03-28T08:41:40.975Z,2.28
2023-03-28T08:44:07.632Z,2.60
2023-03-28T08:46:34.266Z,2.38
2023-03-28T08:49:03.716Z,2.35
2023-03-28T08:51:40.983Z,2.55
2023-03-28T08:54:23.235Z,2.22
2023-03-28T08:56:52.228Z,2.38
2023-03-28T08:59:48.494Z,3.55
2023-03-28T09:02:18.887Z,4.00
2023-03-28T09:04:45.667Z,2.88
2023-03-28T09:07:22.292Z,3.33
2023-03-28T09:10:11.340Z,2.92
2023-03-28T09:12:50.875Z,2.58
2023-03-28T09:15:24.388Z,2.53
2023-03-28T09:17:55.215Z,2.50
2023-03-28T09:20:33.456Z,2.20
2023-03-28T09:23:35.396Z,2.30
2023-03-28T09:26:07.886Z,2.42
2023-03-28T09:28:46.795Z,2.45
2023-03-28T09:31:13.739Z,2.55
2023-03-28T09:33:43.052Z,2.70
2023-03-28T09:36:21.760Z,2.05
2023-03-28T09:38:57.256Z,2.50
2023-03-28T09:41:52.938Z,2.33
2023-03-28T09:44:21.356Z,4.25
2023-03-28T09:46:48.702Z,3.40
2023-03-28T09:49:17.587Z,2.80
2023-03-28T09:51:44.484Z,2.88
2023-03-28T09:54:11.213Z,2.95
2023-03-28T09:56:44.474Z,2.67
2023-03-28T09:59:33.119Z,3.03
2023-03-28T10:02:02.300Z,2.40
2023-03-28T10:04:29.185Z,2.72
2023-03-28T10:06:57.310Z,2.25
2023-03-28T10:09:28.474Z,2.03
2023-03-28T10:11:59.943Z,2.33
2023-03-28T10:14:36.684Z,1.90
2023-03-28T10:17:05.354Z,2.30
2023-03-28T10:19:37.676Z,2.05
2023-03-28T10:22:10.966Z,2.00
2023-03-28T10:24:39.685Z,2.55
2023-03-28T10:27:39.446Z,2.50
2023-03-28T10:30:22.711Z,2.45
2023-03-28T10:33:08.893Z,2.25
2023-03-28T10:35:35.629Z,2.30
2023-03-28T10:38:03.570Z,1.85
2023-03-28T10:40:31.166Z,2.30
2023-03-28T10:42:58.506Z,2.20
2023-03-28T10:45:39.741Z,2.33
2023-03-28T10:48:15.570Z,2.53
2023-03-28T10:50:49.653Z,2.30
2023-03-28T10:53:31.843Z,2.10
2023-03-28T10:56:19.445Z,1.70
2023-03-28T10:59:16.792Z,2.10
2023-03-28T11:01:49.359Z,2.47
2023-03-28T11:04:35.802Z,2.25
2023-03-28T11:07:09.526Z,1.98
2023-03-28T11:09:58.480Z,2.45
2023-03-28T11:12:43.730Z,2.42
2023-03-28T11:15:25.546Z,2.08
2023-03-28T11:18:13.149Z,1.92
2023-03-28T11:21:14.440Z,1.92
2023-03-28T11:24:06.690Z,2.08
2023-03-28T11:27:08.507Z,2.13
2023-03-28T11:30:05.377Z,2.80
2023-03-28T11:32:40.425Z,2.28
2023-03-28T11:35:15.987Z,2.35
2023-03-28T11:38:22.385Z,2.10
2023-03-28T11:41:07.945Z,5.22
2023-03-28T11:43:43.799Z,3.38
2023-03-28T11:46:15.262Z,3.25
2023-03-28T11:48:44.571Z,2.35
2023-03-28T11:51:16.015Z,2.28
2023-03-28T11:53:57.937Z,2.30
2023-03-28T11:56:36.189Z,2.20
2023-03-28T11:59:06.748Z,1.63
2023-03-28T12:01:35.021Z,1.90
2023-03-28T12:04:15.365Z,2.10
2023-03-28T12:07:04.383Z,1.95
2023-03-28T12:09:36.560Z,1.88
2023-03-28T12:12:09.326Z,1.92
2023-03-28T12:14:54.697Z,1.70
2023-03-28T12:17:30.328Z,1.80
2023-03-28T12:19:57.645Z,2.38
2023-03-28T12:22:26.518Z,2.08
2023-03-28T12:24:56.696Z,1.77
2023-03-28T12:27:37.116Z,2.05
2023-03-28T12:30:06.800Z,1.77
2023-03-28T12:32:40.668Z,2.03
2023-03-28T12:35:35.097Z,1.55
2023-03-28T12:38:17.005Z,1.90
2023-03-28T12:40:49.558Z,1.80
2023-03-28T12:43:17.254Z,1.92
2023-03-28T12:45:46.485Z,2.28
2023-03-28T12:48:40.866Z,2.08
2023-03-28T12:51:10.939Z,1.90
2023-03-28T12:53:43.816Z,1.75
2023-03-28T12:56:12.565Z,1.95
2023-03-28T12:58:39.849Z,2.00
2023-03-28T13:01:29.806Z,2.03
2023-03-28T13:04:17.569Z,1.80
2023-03-28T13:07:24.210Z,1.80
2023-03-28T13:09:53.838Z,1.73
2023-03-28T13:12:32.390Z,1.67
2023-03-28T13:15:14.417Z,2.00
2023-03-28T13:18:21.795Z,1.65
2023-03-28T13:20:51.255Z,1.63
2023-03-28T13:23:18.442Z,2.25
2023-03-28T13:25:54.012Z,1.80
2023-03-28T13:28:30.723Z,1.70
2023-03-28T13:31:11.363Z,1.92
2023-03-28T13:33:44.964Z,2.45
2023-03-28T13:36:13.254Z,1.60
2023-03-28T13:38:55.648Z,1.85
2023-03-28T13:41:37.134Z,1.83
2023-03-28T13:44:06.506Z,1.90
2023-03-28T13:46:44.471Z,1.90
2023-03-28T13:49:14.758Z,1.70
2023-03-28T13:52:00.510Z,2.10
2023-03-28T13:54:28.321Z,1.90
2023-03-28T13:56:55.080Z,2.13
2023-03-28T13:59:25.552Z,1.65
2023-03-28T14:01:56.398Z,1.92
2023-03-28T14:04:33.696Z,2.03
2023-03-28T14:07:00.811Z,1.83
2023-03-28T14:09:30.174Z,2.33
2023-03-28T14:12:00.781Z,2.00
